createdAt,value
2018-09-04T00:01:08.716Z,16.83
2018-09-04T00:03:45.458Z,17.23
2018-09-04T00:06:21.860Z,18.23
2018-09-04T00:08:58.258Z,17.40
2018-09-04T00:11:34.739Z,19.03
2018-09-04T00:14:11.502Z,19.57
2018-09-04T00:16:47.904Z,18.80
2018-09-04T00:19:24.355Z,17.97
2018-09-04T00:22:00.873Z,20.23
2018-09-04T00:24:37.369Z,18.93
2018-09-04T00:27:13.879Z,19.40
2018-09-04T00:29:50.349Z,19.83
2018-09-04T00:32:26.951Z,19.17
2018-09-04T00:35:03.351Z,19.80
2018-09-04T00:37:39.789Z,19.07
2018-09-04T00:40:16.210Z,19.87
2018-09-04T00:42:52.701Z,20.30
2018-09-04T00:45:29.178Z,20.17
2018-09-04T00:48:05.658Z,20.53
2018-09-04T00:50:42.022Z,18.80
2018-09-04T00:53:18.454Z,20.40
2018-09-04T00:55:54.902Z,19.40
2018-09-04T00:58:31.573Z,20.70
2018-09-04T01:01:08.506Z,19.80
2018-09-04T01:03:44.917Z,18.90
2018-09-04T01:06:21.252Z,20.70
2018-09-04T01:08:57.745Z,21.17
2018-09-04T01:11:34.212Z,18.97
2018-09-04T01:14:10.671Z,19.40
2018-09-04T01:16:47.269Z,19.70
2018-09-04T01:19:23.648Z,19.73
2018-09-04T01:22:00.143Z,19.70
2018-09-04T01:24:36.446Z,19.37
2018-09-04T01:27:12.998Z,17.80
2018-09-04T01:29:49.565Z,18.30
2018-09-04T01:32:25.883Z,19.47
2018-09-04T01:35:02.511Z,19.87
2018-09-04T01:37:38.847Z,18.93
2018-09-04T01:40:15.384Z,19.20
2018-09-04T01:42:51.952Z,20.57
2018-09-04T01:45:28.291Z,20.27
2018-09-04T01:48:04.661Z,18.57
2018-09-04T01:50:41.238Z,20.10
2018-09-04T01:53:17.564Z,20.17
2018-09-04T01:55:53.897Z,20.80
2018-09-04T01:58:30.248Z,20.30
2018-09-04T02:01:06.586Z,20.13
2018-09-04T02:03:43.043Z,21.23
2018-09-04T02:06:19.453Z,18.77
2018-09-04T02:08:55.865Z,20.10
2018-09-04T02:11:38.992Z,20.50
2018-09-04T02:14:15.374Z,19.60
2018-09-04T02:16:52.247Z,22.20
2018-09-04T02:19:29.109Z,20.17
2018-09-04T02:22:05.522Z,20.30
2018-09-04T02:24:41.865Z,20.60
2018-09-04T02:27:18.302Z,20.33
2018-09-04T02:29:54.947Z,20.20
2018-09-04T02:32:31.218Z,21.23
2018-09-04T02:35:07.756Z,19.13
2018-09-04T02:37:44.177Z,20.40
2018-09-04T02:40:20.666Z,21.00
2018-09-04T02:42:57.060Z,18.80
2018-09-04T02:45:33.341Z,19.90
2018-09-04T02:48:09.832Z,20.50
2018-09-04T02:50:46.310Z,19.53
2018-09-04T02:53:22.716Z,20.70
2018-09-04T02:55:59.139Z,21.40
2018-09-04T02:58:35.699Z,22.07
2018-09-04T03:01:12.198Z,19.10
2018-09-04T03:03:48.722Z,19.90
2018-09-04T03:06:25.150Z,22.37
2018-09-04T03:09:01.566Z,21.37
2018-09-04T03:11:38.000Z,20.60
2018-09-04T03:14:14.495Z,22.37
2018-09-04T03:16:51.214Z,22.83
2018-09-04T03:19:27.887Z,21.50
2018-09-04T03:22:04.560Z,20.80
2018-09-04T03:24:41.005Z,22.43
2018-09-04T03:27:17.479Z,21.90
2018-09-04T03:29:54.028Z,21.47
2018-09-04T03:32:30.320Z,22.20
2018-09-04T03:35:06.704Z,19.37
2018-09-04T03:37:43.313Z,20.40
2018-09-04T03:40:19.950Z,22.10
2018-09-04T03:42:56.353Z,22.70
2018-09-04T03:45:32.703Z,21.03
2018-09-04T03:48:09.672Z,23.13
2018-09-04T03:50:46.206Z,20.37
2018-09-04T03:53:22.575Z,19.97
2018-09-04T03:55:59.084Z,23.30
2018-09-04T03:58:35.654Z,22.10
2018-09-04T04:01:12.013Z,20.60
2018-09-04T04:03:48.334Z,22.80
2018-09-04T04:06:24.855Z,22.40
2018-09-04T04:09:01.373Z,22.27
2018-09-04T04:11:38.054Z,20.60
2018-09-04T04:14:14.492Z,21.23
2018-09-04T04:16:51.071Z,22.50
2018-09-04T04:19:27.486Z,21.33
2018-09-04T04:22:03.842Z,21.53
2018-09-04T04:24:40.348Z,21.63
2018-09-04T04:27:16.902Z,20.90
2018-09-04T04:29:53.413Z,22.93
2018-09-04T04:32:29.775Z,22.60
2018-09-04T04:35:06.820Z,22.63
2018-09-04T04:37:43.078Z,22.30
2018-09-04T04:40:19.363Z,21.37
2018-09-04T04:42:55.679Z,21.73
2018-09-04T04:45:32.184Z,21.13
2018-09-04T04:48:08.821Z,23.63
2018-09-04T04:50:45.201Z,20.70
2018-09-04T04:53:21.651Z,21.90
2018-09-04T04:55:58.144Z,22.57
2018-09-04T04:58:34.610Z,21.30
2018-09-04T05:01:11.143Z,22.30
2018-09-04T05:03:47.773Z,20.83
2018-09-04T05:06:24.162Z,21.50
2018-09-04T05:09:00.578Z,23.00
2018-09-04T05:11:37.131Z,18.40
2018-09-04T05:14:13.415Z,19.60
2018-09-04T05:16:49.902Z,18.80
2018-09-04T05:19:26.407Z,20.33
2018-09-04T05:22:02.917Z,19.80
2018-09-04T05:24:39.457Z,21.00
2018-09-04T05:27:15.853Z,20.37
2018-09-04T05:29:52.582Z,20.80
2018-09-04T05:33:32.192Z,20.80
2018-09-04T05:36:08.601Z,19.00
2018-09-04T05:38:45.043Z,22.67
2018-09-04T05:41:21.526Z,21.00
2018-09-04T05:43:59.741Z,23.20
2018-09-04T05:46:42.683Z,22.00
2018-09-04T05:49:22.003Z,21.50
2018-09-04T05:51:58.576Z,21.50
2018-09-04T05:54:35.012Z,20.00
2018-09-04T05:57:11.538Z,20.40
2018-09-04T05:59:48.083Z,20.87
2018-09-04T06:02:24.481Z,20.47
2018-09-04T06:05:01.616Z,19.83
2018-09-04T06:07:38.133Z,20.23
2018-09-04T06:10:14.656Z,20.67
2018-09-04T06:12:51.122Z,19.60
2018-09-04T06:15:27.543Z,18.37
2018-09-04T06:18:04.065Z,19.47
2018-09-04T06:20:40.512Z,20.60
2018-09-04T06:23:17.083Z,21.87
2018-09-04T06:25:54.722Z,20.40
2018-09-04T06:28:31.071Z,20.33
2018-09-04T06:31:07.547Z,19.30
2018-09-04T06:33:44.148Z,20.53
2018-09-04T06:36:20.547Z,20.00
2018-09-04T06:38:57.638Z,19.57
2018-09-04T06:41:34.140Z,19.13
2018-09-04T06:44:10.539Z,18.77
2018-09-04T06:46:47.048Z,20.33
2018-09-04T06:49:24.544Z,18.50
2018-09-04T06:52:00.987Z,18.70
2018-09-04T06:54:37.490Z,18.17
2018-09-04T06:57:13.901Z,18.37
2018-09-04T06:59:50.350Z,18.33
2018-09-04T07:02:27.427Z,16.37
2018-09-04T07:05:03.850Z,15.50
2018-09-04T07:07:40.532Z,14.87
2018-09-04T07:10:16.899Z,14.37
2018-09-04T07:12:53.391Z,14.37
2018-09-04T07:15:29.910Z,14.40
2018-09-04T07:18:07.194Z,14.80
2018-09-04T07:20:43.639Z,14.57
2018-09-04T07:23:20.105Z,13.10
2018-09-04T07:25:56.488Z,14.37
2018-09-04T07:28:33.934Z,14.20
2018-09-04T07:31:10.411Z,14.57
2018-09-04T07:33:46.810Z,15.10
2018-09-04T07:36:23.468Z,13.67
2018-09-04T07:38:59.731Z,13.80
2018-09-04T07:41:36.490Z,13.20
2018-09-04T07:44:12.951Z,13.37
2018-09-04T07:46:49.450Z,14.23
2018-09-04T07:49:25.864Z,14.10
2018-09-04T07:52:02.421Z,13.80
2018-09-04T07:54:38.829Z,13.87
2018-09-04T07:57:15.463Z,13.73
2018-09-04T07:59:51.823Z,14.57
2018-09-04T08:02:28.417Z,13.40
2018-09-04T08:05:05.551Z,12.93
2018-09-04T08:07:42.119Z,13.97
2018-09-04T08:10:18.512Z,12.10
2018-09-04T08:12:55.035Z,12.87
2018-09-04T08:15:31.545Z,12.90
2018-09-04T08:18:07.866Z,14.23
2018-09-04T08:20:44.420Z,12.27
2018-09-04T08:23:20.751Z,11.07
2018-09-04T08:25:57.119Z,11.87
2018-09-04T08:28:33.747Z,13.47
2018-09-04T08:31:10.207Z,11.63
2018-09-04T08:33:46.738Z,9.13
2018-09-04T08:36:23.160Z,10.60
2018-09-04T08:38:59.525Z,9.13
2018-09-04T08:41:36.256Z,8.80
2018-09-04T08:44:12.748Z,9.93
2018-09-04T08:46:49.266Z,9.63
2018-09-04T08:49:25.677Z,9.83
2018-09-04T08:52:02.151Z,10.03
2018-09-04T08:54:38.678Z,9.13
2018-09-04T08:57:15.106Z,8.57
2018-09-04T08:59:51.546Z,7.73
2018-09-04T09:02:28.028Z,8.97
2018-09-04T09:05:04.583Z,7.80
2018-09-04T09:07:40.962Z,7.27
2018-09-04T09:10:17.515Z,6.40
2018-09-04T09:12:53.853Z,6.30
2018-09-04T09:15:30.308Z,7.13
2018-09-04T09:18:06.894Z,7.13
2018-09-04T09:20:43.243Z,7.30
2018-09-04T09:23:19.598Z,6.13
2018-09-04T09:25:55.921Z,8.27
2018-09-04T09:28:32.492Z,7.30
2018-09-04T09:38:04.353Z,5.80
2018-09-04T09:40:40.849Z,6.03
2018-09-04T09:43:17.214Z,6.80
2018-09-04T09:45:53.970Z,5.67
2018-09-04T09:48:36.623Z,6.43
2018-09-04T09:51:13.824Z,6.40
2018-09-04T09:53:50.141Z,7.00
2018-09-04T09:56:26.610Z,6.30
2018-09-04T09:59:03.223Z,6.50
2018-09-04T10:01:44.980Z,6.70
2018-09-04T10:04:21.547Z,7.13
2018-09-04T10:06:57.844Z,6.67
2018-09-04T10:09:34.359Z,6.33
2018-09-04T10:12:10.895Z,6.90
2018-09-04T10:14:47.382Z,8.10
2018-09-04T10:17:23.842Z,7.40
2018-09-04T10:20:01.783Z,7.77
2018-09-04T10:22:38.115Z,7.53
2018-09-04T10:25:14.456Z,8.97
2018-09-04T10:27:50.959Z,8.23
2018-09-04T10:30:27.415Z,8.10
2018-09-04T10:33:03.831Z,15.20
2018-09-04T10:35:40.340Z,20.63
2018-09-04T10:38:16.744Z,55.60
2018-09-04T10:41:03.074Z,9.70
2018-09-04T10:43:39.309Z,7.37
2018-09-04T10:46:16.150Z,9.60
2018-09-04T10:48:53.232Z,8.20
2018-09-04T10:51:29.731Z,8.50
2018-09-04T10:54:06.496Z,7.73
2018-09-04T10:56:42.962Z,7.40
2018-09-04T10:59:19.866Z,8.47
2018-09-04T11:01:56.363Z,7.00
2018-09-04T11:04:32.651Z,8.00
2018-09-04T11:07:09.236Z,7.43
2018-09-04T11:09:45.826Z,7.20
2018-09-04T11:12:22.231Z,8.60
2018-09-04T11:14:58.495Z,7.50
2018-09-04T11:17:35.074Z,7.43
2018-09-04T11:20:11.690Z,8.20
2018-09-04T11:22:48.176Z,7.27
2018-09-04T11:25:24.610Z,7.63
2018-09-04T11:28:01.093Z,8.07
2018-09-04T11:30:37.390Z,7.70
2018-09-04T11:33:13.618Z,7.60
2018-09-04T11:35:50.067Z,7.23
2018-09-04T11:38:26.658Z,7.40
2018-09-04T11:41:03.110Z,8.00
2018-09-04T11:43:39.419Z,6.50
2018-09-04T11:46:15.935Z,7.50
2018-09-04T11:48:52.937Z,7.27
2018-09-04T11:51:29.311Z,7.83
2018-09-04T11:54:05.878Z,7.30
2018-09-04T11:56:42.327Z,7.50
2018-09-04T11:59:18.763Z,6.93
2018-09-04T12:01:58.888Z,7.13
2018-09-04T12:04:35.152Z,7.33
2018-09-04T12:07:11.583Z,7.87
2018-09-04T12:09:48.240Z,7.83
2018-09-04T12:12:31.220Z,8.07
2018-09-04T12:15:07.467Z,8.07
2018-09-04T12:17:44.877Z,7.67
2018-09-04T12:20:58.900Z,7.90
2018-09-04T12:23:35.188Z,8.20
2018-09-04T12:26:12.554Z,7.40
2018-09-04T12:28:49.003Z,7.17
2018-09-04T12:31:25.559Z,8.10
2018-09-04T12:34:02.394Z,8.00
2018-09-04T12:36:38.869Z,8.07
2018-09-04T12:39:15.358Z,7.37
2018-09-04T12:41:51.865Z,8.20
2018-09-04T12:44:28.366Z,7.20
2018-09-04T12:47:05.675Z,7.50
2018-09-04T12:49:42.002Z,8.60
2018-09-04T12:52:18.411Z,8.30
2018-09-04T12:54:54.777Z,8.40
2018-09-04T12:57:31.615Z,7.67
2018-09-04T13:00:08.924Z,7.90
2018-09-04T13:02:45.460Z,8.20
2018-09-04T13:05:21.974Z,8.03
2018-09-04T13:07:58.487Z,8.40
2018-09-04T13:10:34.872Z,8.03
2018-09-04T13:13:11.428Z,10.10
2018-09-04T13:15:49.716Z,9.17
2018-09-04T13:18:27.208Z,8.33
2018-09-04T13:21:04.731Z,9.10
2018-09-04T13:23:41.104Z,8.70
2018-09-04T13:26:17.582Z,7.60
2018-09-04T13:28:54.090Z,8.40
2018-09-04T13:31:30.530Z,8.20
2018-09-04T13:34:07.787Z,8.57
2018-09-04T13:36:45.259Z,7.77
2018-09-04T13:39:22.826Z,7.97
2018-09-04T13:41:59.158Z,7.87
2018-09-04T13:44:35.704Z,8.10
2018-09-04T13:47:12.081Z,8.70
2018-09-04T13:49:48.655Z,7.47
2018-09-04T13:52:25.647Z,8.20
2018-09-04T13:55:02.203Z,9.10
2018-09-04T13:57:38.718Z,8.07
2018-09-04T14:00:16.275Z,8.00
2018-09-04T14:02:52.712Z,8.33
2018-09-04T14:05:29.166Z,7.97
2018-09-04T14:08:06.114Z,8.00
2018-09-04T14:10:42.573Z,7.83
2018-09-04T14:13:19.031Z,7.60
2018-09-04T14:15:59.038Z,7.93
2018-09-04T14:18:35.495Z,8.70
2018-09-04T14:21:12.050Z,8.40
2018-09-04T14:23:48.567Z,7.60
2018-09-04T14:26:25.108Z,7.93
2018-09-04T14:29:08.594Z,7.50
2018-09-04T14:31:44.797Z,8.17
2018-09-04T14:34:21.253Z,8.33
2018-09-04T14:36:57.816Z,7.60
2018-09-04T14:39:34.163Z,7.93
2018-09-04T14:42:10.435Z,7.37
2018-09-04T14:44:47.001Z,7.87
2018-09-04T14:47:23.498Z,8.67
2018-09-04T14:49:59.918Z,7.80
2018-09-04T14:52:36.202Z,8.30
2018-09-04T14:55:12.743Z,7.50
2018-09-04T14:57:49.665Z,8.13
2018-09-04T15:00:26.095Z,8.10
2018-09-04T15:03:02.556Z,8.73
2018-09-04T15:05:39.118Z,8.90
2018-09-04T15:08:15.556Z,8.30
2018-09-04T15:10:52.191Z,7.77
2018-09-04T15:13:28.992Z,8.57
2018-09-04T15:16:05.567Z,8.77
2018-09-04T15:18:43.185Z,7.90
2018-09-04T15:21:20.301Z,7.80
2018-09-04T15:23:57.371Z,8.67
2018-09-04T15:26:33.887Z,8.23
2018-09-04T15:29:10.645Z,8.77
2018-09-04T15:31:47.379Z,8.37
2018-09-04T15:34:23.863Z,7.40
2018-09-04T15:37:00.688Z,8.80
2018-09-04T15:39:37.130Z,8.13
2018-09-04T15:42:13.601Z,7.27
2018-09-04T15:44:50.118Z,7.60
2018-09-04T15:47:26.379Z,8.17
2018-09-04T15:50:02.959Z,8.30
2018-09-04T15:52:39.467Z,8.63
2018-09-04T15:55:16.097Z,8.53
2018-09-04T15:57:56.471Z,8.90
2018-09-04T16:00:32.989Z,8.77
2018-09-04T16:03:09.515Z,8.50
2018-09-04T16:05:46.106Z,8.30
2018-09-04T16:08:22.455Z,8.90
2018-09-04T16:11:00.011Z,10.40
2018-09-04T16:13:36.417Z,9.07
2018-09-04T16:16:12.861Z,8.87
2018-09-04T16:18:49.302Z,7.47
2018-09-04T16:21:25.759Z,9.13
2018-09-04T16:24:02.351Z,8.87
2018-09-04T16:26:38.705Z,7.70
2018-09-04T16:29:15.227Z,8.23
2018-09-04T16:31:51.507Z,8.50
2018-09-04T16:34:28.284Z,7.73
2018-09-04T16:37:05.224Z,8.00
2018-09-04T16:39:41.534Z,7.60
2018-09-04T16:42:18.042Z,8.00
2018-09-04T16:44:54.368Z,8.63
2018-09-04T16:47:31.038Z,8.93
2018-09-04T16:50:07.998Z,7.63
2018-09-04T16:52:44.386Z,7.03
2018-09-04T16:55:21.517Z,6.73
2018-09-04T16:57:57.975Z,6.00
2018-09-04T17:00:34.418Z,6.37
2018-09-04T17:03:10.906Z,5.83
2018-09-04T17:05:47.459Z,5.20
2018-09-04T17:08:23.899Z,5.30
2018-09-04T17:11:00.210Z,4.83
2018-09-04T17:13:36.697Z,5.00
2018-09-04T17:16:14.202Z,4.67
2018-09-04T17:18:50.733Z,4.93
2018-09-04T17:21:27.228Z,4.43
2018-09-04T17:24:03.822Z,5.40
2018-09-04T17:26:40.314Z,5.50
2018-09-04T17:29:17.590Z,4.70
2018-09-04T17:31:54.018Z,4.90
2018-09-04T17:34:30.412Z,4.50
2018-09-04T17:37:06.881Z,5.30
2018-09-04T17:39:43.423Z,4.67
2018-09-04T17:42:19.902Z,4.90
2018-09-04T17:44:57.050Z,4.70
2018-09-04T17:47:33.849Z,5.50
2018-09-04T17:50:10.080Z,4.67
2018-09-04T17:52:46.859Z,4.97
2018-09-04T17:55:23.512Z,5.10
2018-09-04T17:58:01.103Z,5.17
2018-09-04T18:00:38.632Z,5.20
2018-09-04T18:03:15.241Z,4.47
2018-09-04T18:05:52.031Z,5.90
2018-09-04T18:08:29.886Z,5.10
2018-09-04T18:12:31.502Z,4.33
2018-09-04T18:15:08.780Z,5.10
2018-09-04T18:21:00.985Z,4.40
2018-09-04T18:23:37.554Z,4.77
2018-09-04T18:26:15.124Z,4.40
2018-09-04T18:28:52.273Z,5.13
2018-09-04T18:31:29.314Z,5.37
2018-09-04T18:34:06.091Z,4.90
2018-09-04T18:36:42.526Z,4.73
2018-09-04T18:39:19.044Z,5.50
2018-09-04T18:41:56.441Z,5.43
2018-09-04T18:44:32.952Z,5.43
2018-09-04T18:47:09.825Z,5.60
2018-09-04T18:49:47.222Z,5.20
2018-09-04T18:52:24.270Z,6.17
2018-09-04T18:55:03.290Z,5.37
2018-09-04T18:57:39.137Z,5.33
2018-09-04T19:00:16.152Z,5.80
2018-09-04T19:02:53.714Z,6.07
2018-09-04T19:05:31.724Z,5.53
2018-09-04T19:08:09.031Z,6.07
2018-09-04T19:10:48.278Z,6.13
2018-09-04T19:13:25.715Z,4.97
2018-09-04T19:16:02.664Z,6.20
2018-09-04T19:18:39.786Z,6.00
2018-09-04T19:21:16.984Z,5.67
2018-09-04T19:23:53.623Z,5.53
2018-09-04T19:26:30.019Z,5.63
2018-09-04T19:29:06.626Z,6.00
2018-09-04T19:31:43.071Z,6.30
2018-09-04T19:34:19.535Z,6.53
2018-09-04T19:36:56.150Z,5.70
2018-09-04T19:39:34.174Z,5.80
2018-09-04T19:42:11.241Z,5.17
2018-09-04T19:44:47.672Z,6.10
2018-09-04T19:47:24.291Z,6.17
2018-09-04T19:50:00.872Z,5.83
2018-09-04T19:52:37.310Z,5.90
2018-09-04T19:55:13.716Z,6.00
2018-09-04T19:57:51.750Z,5.57
2018-09-04T20:00:29.043Z,6.10
2018-09-04T20:03:07.025Z,5.60
2018-09-04T20:05:44.558Z,6.27
2018-09-04T20:08:21.896Z,6.70
2018-09-04T20:10:59.804Z,5.77
2018-09-04T20:13:37.478Z,6.07
2018-09-04T20:16:15.563Z,6.33
2018-09-04T20:18:52.791Z,6.10
2018-09-04T20:21:30.067Z,6.10
2018-09-04T20:24:08.451Z,5.80
2018-09-04T20:26:45.701Z,6.20
2018-09-04T20:29:24.042Z,5.90
2018-09-04T20:32:01.302Z,6.50
2018-09-04T20:34:38.258Z,5.70
2018-09-04T20:37:16.424Z,6.93
2018-09-04T20:39:55.136Z,6.30
2018-09-04T20:42:33.289Z,6.13
2018-09-04T20:45:10.937Z,5.20
2018-09-04T20:47:48.875Z,6.70
2018-09-04T20:50:26.178Z,7.10
2018-09-04T20:53:03.395Z,6.93
2018-09-04T20:55:41.571Z,6.80
2018-09-04T20:58:35.491Z,7.93
2018-09-04T21:01:29.274Z,7.60
2018-09-04T21:04:22.813Z,7.47
2018-09-04T21:06:57.957Z,6.70
2018-09-04T21:09:42.923Z,7.50
2018-09-04T21:12:20.638Z,7.47
2018-09-04T21:14:59.351Z,8.23
2018-09-04T21:17:36.339Z,7.70
2018-09-04T21:20:13.123Z,8.77
2018-09-04T21:22:52.027Z,8.00
2018-09-04T21:25:29.095Z,7.93
2018-09-04T21:28:07.395Z,7.83
2018-09-04T21:30:44.801Z,8.93
2018-09-04T21:33:28.250Z,8.03
2018-09-04T21:36:05.868Z,8.57
2018-09-04T21:38:42.990Z,9.03
2018-09-04T21:41:19.547Z,8.23
2018-09-04T21:43:57.312Z,10.20
2018-09-04T21:46:33.579Z,8.13
2018-09-04T21:49:10.075Z,8.93
2018-09-04T21:51:46.573Z,8.20
2018-09-04T21:54:22.942Z,9.10
2018-09-04T21:56:59.416Z,8.67
2018-09-04T21:59:35.911Z,9.03
2018-09-04T22:02:12.251Z,9.77
2018-09-04T22:04:48.980Z,8.90
2018-09-04T22:07:25.440Z,9.30
2018-09-04T22:10:02.014Z,9.40
2018-09-04T22:12:38.489Z,9.70
2018-09-04T22:15:14.882Z,8.80
2018-09-04T22:17:53.064Z,9.63
2018-09-04T22:20:29.418Z,9.80
2018-09-04T22:23:06.239Z,8.73
2018-09-04T22:25:42.693Z,10.10
2018-09-04T22:28:19.211Z,10.37
2018-09-04T22:30:55.612Z,10.03
2018-09-04T22:33:32.018Z,10.33
2018-09-04T22:36:08.534Z,9.80
2018-09-04T22:38:45.009Z,10.13
2018-09-04T22:41:21.474Z,10.23
2018-09-04T22:43:57.968Z,10.50
2018-09-04T22:46:34.407Z,10.10
2018-09-04T22:49:10.829Z,11.27
2018-09-04T22:51:47.244Z,9.87
2018-09-04T22:54:23.690Z,9.57
2018-09-04T22:57:00.224Z,11.23
2018-09-04T22:59:36.607Z,10.70
2018-09-04T23:02:13.127Z,10.60
2018-09-04T23:04:49.536Z,10.53
2018-09-04T23:07:26.180Z,12.13
2018-09-04T23:10:03.129Z,11.13
2018-09-04T23:12:39.545Z,10.90
2018-09-04T23:15:16.016Z,10.47
2018-09-04T23:17:52.699Z,9.60
2018-09-04T23:20:29.026Z,10.17
2018-09-04T23:23:05.697Z,10.23
2018-09-04T23:25:42.099Z,10.10
2018-09-04T23:28:18.629Z,10.67
2018-09-04T23:30:55.085Z,12.73
2018-09-04T23:33:32.264Z,10.40
2018-09-04T23:36:08.986Z,11.93
2018-09-04T23:38:45.236Z,11.23
2018-09-04T23:41:22.035Z,9.80
2018-09-04T23:43:58.306Z,9.00
2018-09-04T23:46:34.673Z,11.33
2018-09-04T23:49:11.029Z,11.47
2018-09-04T23:51:47.969Z,10.73
2018-09-04T23:54:24.489Z,10.53
2018-09-04T23:57:00.953Z,10.57
2018-09-04T23:59:37.317Z,11.20
